createdAt,value
2017-11-29T00:00:50.074Z,17.10
2017-11-29T00:03:17.591Z,16.42
2017-11-29T00:05:45.118Z,13.60
2017-11-29T00:08:12.634Z,14.25
2017-11-29T00:10:40.129Z,17.37
2017-11-29T00:13:07.623Z,13.65
2017-11-29T00:15:35.133Z,14.80
2017-11-29T00:18:02.663Z,11.07
2017-11-29T00:20:30.958Z,14.18
2017-11-29T00:22:58.499Z,11.93
2017-11-29T00:25:25.972Z,14.93
2017-11-29T00:27:53.508Z,11.23
2017-11-29T00:30:21.022Z,13.55
2017-11-29T00:32:48.568Z,8.63
2017-11-29T00:35:16.086Z,13.98
2017-11-29T00:37:44.383Z,13.95
2017-11-29T00:40:11.853Z,18.98
2017-11-29T00:42:39.385Z,10.07
2017-11-29T00:45:06.921Z,15.57
2017-11-29T00:47:35.172Z,11.32
2017-11-29T00:50:02.706Z,14.50
2017-11-29T00:52:30.232Z,11.90
2017-11-29T00:54:57.780Z,12.32
2017-11-29T00:57:25.280Z,13.55
2017-11-29T00:59:52.775Z,10.98
2017-11-29T01:02:20.298Z,11.98
2017-11-29T01:04:47.847Z,9.55
2017-11-29T01:07:15.384Z,12.65
2017-11-29T01:09:43.647Z,11.43
2017-11-29T01:12:11.926Z,12.48
2017-11-29T01:14:40.199Z,10.85
2017-11-29T01:17:07.711Z,11.23
2017-11-29T01:19:35.220Z,11.90
2017-11-29T01:22:03.495Z,14.00
2017-11-29T01:24:31.015Z,9.82
2017-11-29T01:26:58.581Z,15.20
2017-11-29T01:29:26.051Z,17.05
2017-11-29T01:31:53.573Z,14.52
2017-11-29T01:34:21.140Z,18.02
2017-11-29T01:36:48.614Z,12.52
2017-11-29T01:39:16.108Z,16.00
2017-11-29T01:41:44.365Z,15.45
2017-11-29T01:44:11.895Z,18.30
2017-11-29T01:46:39.416Z,13.05
2017-11-29T01:49:07.704Z,23.15
2017-11-29T01:51:35.243Z,14.63
2017-11-29T01:54:03.586Z,18.12
2017-11-29T01:56:31.078Z,19.65
2017-11-29T01:58:59.360Z,16.73
2017-11-29T02:01:26.842Z,18.02
2017-11-29T02:03:54.349Z,17.75
2017-11-29T02:06:26.784Z,18.87
2017-11-29T02:08:54.791Z,16.90
2017-11-29T02:11:22.317Z,22.62
2017-11-29T02:13:49.881Z,20.12
2017-11-29T02:16:17.404Z,19.52
2017-11-29T02:18:44.950Z,23.38
2017-11-29T02:21:12.528Z,23.27
2017-11-29T02:23:40.095Z,22.30
2017-11-29T02:26:07.586Z,27.60
2017-11-29T02:28:35.089Z,22.02
2017-11-29T02:31:03.332Z,26.35
2017-11-29T02:33:30.880Z,21.40
2017-11-29T02:35:58.447Z,27.20
2017-11-29T02:38:25.973Z,22.73
2017-11-29T02:41:05.287Z,22.92
2017-11-29T02:43:33.529Z,25.33
2017-11-29T02:46:01.051Z,24.95
2017-11-29T02:48:28.561Z,28.73
2017-11-29T02:50:56.133Z,23.65
2017-11-29T02:53:24.374Z,25.95
2017-11-29T02:55:51.873Z,27.77
2017-11-29T02:58:19.409Z,28.58
2017-11-29T03:00:46.949Z,30.23
2017-11-29T03:03:14.460Z,23.33
2017-11-29T03:05:41.973Z,29.33
2017-11-29T03:08:09.525Z,28.70
2017-11-29T03:10:37.032Z,29.40
2017-11-29T03:13:04.576Z,30.73
2017-11-29T03:15:32.811Z,34.20
2017-11-29T03:18:00.337Z,32.90
2017-11-29T03:20:27.855Z,30.80
2017-11-29T03:22:56.140Z,34.08
2017-11-29T03:25:23.703Z,32.42
2017-11-29T03:27:52.031Z,33.50
2017-11-29T03:30:19.539Z,26.55
2017-11-29T03:32:47.827Z,30.67
2017-11-29T03:35:15.365Z,31.55
2017-11-29T03:37:43.621Z,31.33
2017-11-29T03:40:11.117Z,28.27
2017-11-29T03:42:38.655Z,28.20
2017-11-29T03:45:06.930Z,31.85
2017-11-29T03:47:35.206Z,32.15
2017-11-29T03:50:03.539Z,32.05
2017-11-29T03:52:31.034Z,32.55
2017-11-29T03:54:58.603Z,31.45
2017-11-29T03:57:26.094Z,29.95
2017-11-29T03:59:53.636Z,26.27
2017-11-29T04:02:21.148Z,27.95
2017-11-29T04:04:48.632Z,29.27
2017-11-29T04:07:16.187Z,34.35
2017-11-29T04:09:43.717Z,28.67
2017-11-29T04:12:11.219Z,31.83
2017-11-29T04:14:38.770Z,30.42
2017-11-29T04:17:06.253Z,28.73
2017-11-29T04:19:33.796Z,29.60
2017-11-29T04:22:01.288Z,28.83
2017-11-29T04:24:28.797Z,28.27
2017-11-29T04:26:56.329Z,30.55
2017-11-29T04:29:23.926Z,30.20
2017-11-29T04:31:51.416Z,30.50
2017-11-29T04:34:18.951Z,28.48
2017-11-29T04:36:46.461Z,33.13
2017-11-29T04:39:13.945Z,30.77
2017-11-29T04:41:41.421Z,28.02
2017-11-29T04:44:08.962Z,30.52
2017-11-29T04:46:36.525Z,30.92
2017-11-29T04:49:04.029Z,30.48
2017-11-29T04:51:31.523Z,29.37
2017-11-29T04:54:05.238Z,25.25
2017-11-29T04:56:32.766Z,28.95
2017-11-29T04:59:00.284Z,30.65
2017-11-29T05:01:27.774Z,35.00
2017-11-29T05:03:55.309Z,29.92
2017-11-29T05:06:22.793Z,32.33
2017-11-29T05:08:50.387Z,31.73
2017-11-29T05:11:17.907Z,28.83
2017-11-29T05:13:45.466Z,30.62
2017-11-29T05:16:13.827Z,27.13
2017-11-29T05:18:41.394Z,29.80
2017-11-29T05:21:09.343Z,31.73
2017-11-29T05:23:38.420Z,33.80
2017-11-29T05:26:05.981Z,30.17
2017-11-29T05:28:35.101Z,28.50
2017-11-29T05:31:02.959Z,27.95
2017-11-29T05:36:36.336Z,27.35
2017-11-29T05:41:54.294Z,31.10
2017-11-29T05:44:23.170Z,25.30
2017-11-29T05:46:51.621Z,30.62
2017-11-29T06:09:20.463Z,34.50
2017-11-29T06:11:48.000Z,31.10
2017-11-29T06:14:15.631Z,34.17
2017-11-29T06:16:43.275Z,33.45
2017-11-29T06:19:10.912Z,28.85
2017-11-29T06:21:38.565Z,35.95
2017-11-29T06:24:06.671Z,40.35
2017-11-29T06:26:34.317Z,35.65
2017-11-29T06:29:02.284Z,36.13
2017-11-29T06:31:30.116Z,37.13
2017-11-29T06:34:06.485Z,39.72
2017-11-29T06:36:34.186Z,38.40
2017-11-29T06:39:01.832Z,35.13
2017-11-29T06:41:35.406Z,41.33
2017-11-29T06:44:03.070Z,39.45
2017-11-29T06:46:32.756Z,37.88
2017-11-29T06:49:00.577Z,38.70
2017-11-29T06:51:28.272Z,36.33
2017-11-29T06:53:55.912Z,37.20
2017-11-29T06:56:23.482Z,41.88
2017-11-29T06:59:06.438Z,38.45
2017-11-29T07:07:26.800Z,37.45
2017-11-29T07:09:54.309Z,41.78
2017-11-29T07:12:21.946Z,41.58
2017-11-29T08:03:52.424Z,30.73
2017-11-29T08:06:23.644Z,30.95
2017-11-29T08:08:51.211Z,29.83
2017-11-29T08:11:19.596Z,31.42
2017-11-29T08:13:47.160Z,32.47
2017-11-29T08:16:14.681Z,31.45
2017-11-29T08:18:42.211Z,28.30
2017-11-29T08:21:09.803Z,29.77
2017-11-29T08:23:37.404Z,31.12
2017-11-29T08:26:05.000Z,30.05
2017-11-29T08:28:32.529Z,33.78
2017-11-29T08:31:00.884Z,30.65
2017-11-29T08:33:28.457Z,31.87
2017-11-29T08:35:56.782Z,38.92
2017-11-29T08:38:24.391Z,33.90
2017-11-29T08:40:51.906Z,32.20
2017-11-29T08:43:19.521Z,38.30
2017-11-29T08:45:47.900Z,36.90
2017-11-29T08:48:15.973Z,33.08
2017-11-29T08:50:43.516Z,38.80
2017-11-29T08:53:11.118Z,33.22
2017-11-29T08:55:38.645Z,37.92
2017-11-29T08:58:06.378Z,29.63
2017-11-29T09:00:33.988Z,30.80
2017-11-29T09:03:16.489Z,33.70
2017-11-29T09:05:45.291Z,29.40
2017-11-29T09:08:12.893Z,33.60
2017-11-29T09:10:40.416Z,26.85
2017-11-29T09:13:08.017Z,32.08
2017-11-29T09:15:35.615Z,30.65
2017-11-29T09:18:03.922Z,29.92
2017-11-29T09:20:31.671Z,30.62
2017-11-29T09:23:00.004Z,33.45
2017-11-29T09:25:27.537Z,28.27
2017-11-29T09:27:55.086Z,27.65
2017-11-29T09:30:22.743Z,31.67
2017-11-29T09:32:51.098Z,29.80
2017-11-29T09:35:18.658Z,33.03
2017-11-29T09:37:46.944Z,30.90
2017-11-29T09:40:15.220Z,32.22
2017-11-29T09:42:42.934Z,29.27
2017-11-29T09:45:10.508Z,30.48
2017-11-29T09:47:38.044Z,30.40
2017-11-29T09:50:05.548Z,37.85
2017-11-29T09:52:33.076Z,33.63
2017-11-29T09:55:01.407Z,31.08
2017-11-29T09:57:28.968Z,30.80
2017-11-29T09:59:56.528Z,30.73
2017-11-29T10:02:24.092Z,30.08
2017-11-29T10:04:51.650Z,28.70
2017-11-29T10:07:19.646Z,32.60
2017-11-29T10:09:47.166Z,33.03
2017-11-29T10:15:22.793Z,28.75
2017-11-29T10:17:51.636Z,31.48
2017-11-29T10:38:22.684Z,35.42
2017-11-29T10:40:51.855Z,34.58
2017-11-29T12:51:05.497Z,54.42
2017-11-29T12:53:33.057Z,52.03
2017-11-29T12:56:00.620Z,53.97
2017-11-29T12:58:28.225Z,48.38
2017-11-29T13:00:55.790Z,61.53
2017-11-29T13:03:23.270Z,54.70
2017-11-29T13:05:50.913Z,51.53
2017-11-29T13:08:18.609Z,43.53
2017-11-29T13:10:46.228Z,52.55
2017-11-29T13:13:13.724Z,46.10
2017-11-29T13:15:42.055Z,46.80
2017-11-29T13:18:09.580Z,59.88
2017-11-29T13:20:37.137Z,47.85
2017-11-29T13:23:04.634Z,47.70
2017-11-29T13:25:32.144Z,42.03
2017-11-29T13:27:59.721Z,46.08
2017-11-29T13:30:27.253Z,37.55
2017-11-29T13:32:55.513Z,42.47
2017-11-29T13:35:23.041Z,40.50
2017-11-29T13:37:50.522Z,45.58
2017-11-29T13:40:18.030Z,40.10
2017-11-29T13:42:51.332Z,39.53
2017-11-29T13:45:19.485Z,41.60
2017-11-29T13:47:47.816Z,43.25
2017-11-29T13:50:15.393Z,42.13
2017-11-29T13:58:28.024Z,47.17
2017-11-29T14:00:55.618Z,43.38
2017-11-29T14:03:23.155Z,48.20
2017-11-29T14:05:50.652Z,48.47
2017-11-29T14:08:18.145Z,46.78
2017-11-29T14:10:45.743Z,51.13
2017-11-29T14:13:13.273Z,55.47
2017-11-29T14:15:40.892Z,76.78
2017-11-29T14:18:08.629Z,59.10
2017-11-29T14:20:40.894Z,63.60
2017-11-29T14:23:09.075Z,61.80
2017-11-29T14:25:43.314Z,63.87
2017-11-29T14:28:11.307Z,59.33
2017-11-29T14:30:38.876Z,60.33
2017-11-29T14:33:06.397Z,60.90
2017-11-29T14:35:33.971Z,58.05
2017-11-29T14:38:18.800Z,61.30
2017-11-29T14:40:46.311Z,57.38
2017-11-29T14:43:17.651Z,66.93
2017-11-29T14:48:47.911Z,66.68
2017-11-29T14:51:15.451Z,62.70
2017-11-29T14:53:42.968Z,69.87
2017-11-29T17:06:58.722Z,64.93
2017-11-29T17:12:21.707Z,53.92
2017-11-29T17:38:13.341Z,68.90
2017-11-29T17:40:47.081Z,61.45
2017-11-29T17:43:14.568Z,59.60
2017-11-29T17:45:45.536Z,57.85
2017-11-29T17:48:18.842Z,50.00
2017-11-29T17:51:00.138Z,62.58
2017-11-29T17:53:27.651Z,71.05
2017-11-29T17:55:55.512Z,123.97
2017-11-29T18:28:41.440Z,172.57
2017-11-29T18:37:13.429Z,70.82
2017-11-29T18:39:41.903Z,71.22
2017-11-29T18:42:10.733Z,83.45
2017-11-29T20:06:33.639Z,160.80
2017-11-29T21:16:52.330Z,143.57
2017-11-29T21:19:19.892Z,232.75
2017-11-29T21:21:47.950Z,156.37
2017-11-29T21:24:37.177Z,176.18
2017-11-29T21:27:04.659Z,204.90
2017-11-29T21:29:32.905Z,245.55
2017-11-29T21:32:01.783Z,281.23
2017-11-29T22:27:53.682Z,186.80
2017-11-29T22:30:21.982Z,169.07
2017-11-29T22:32:50.291Z,136.52
2017-11-29T22:35:18.597Z,174.32
2017-11-29T22:37:46.118Z,233.70
2017-11-29T22:40:13.611Z,258.35
2017-11-29T22:42:41.110Z,151.20
2017-11-29T22:45:08.613Z,173.93
2017-11-29T22:47:36.156Z,146.02
2017-11-29T22:50:03.648Z,132.80
2017-11-29T22:52:31.141Z,152.82
2017-11-29T22:54:59.406Z,121.93
2017-11-29T22:57:26.893Z,206.32
2017-11-29T22:59:54.405Z,152.00
2017-11-29T23:02:21.950Z,152.02
2017-11-29T23:04:49.463Z,139.45
2017-11-29T23:07:16.967Z,145.65
2017-11-29T23:09:44.484Z,146.48
2017-11-29T23:12:12.023Z,135.00
2017-11-29T23:14:40.349Z,138.10
2017-11-29T23:17:07.858Z,204.50
2017-11-29T23:19:35.353Z,202.43
2017-11-29T23:22:02.879Z,159.98
2017-11-29T23:24:30.374Z,225.20
2017-11-29T23:26:57.895Z,145.68
2017-11-29T23:29:26.193Z,211.98
2017-11-29T23:31:53.681Z,167.98
2017-11-29T23:34:21.193Z,175.77
2017-11-29T23:36:49.452Z,213.30
2017-11-29T23:39:16.985Z,141.45
2017-11-29T23:41:44.517Z,125.00
2017-11-29T23:44:12.025Z,143.85
2017-11-29T23:46:39.534Z,145.12
2017-11-29T23:49:07.074Z,172.32
2017-11-29T23:51:34.523Z,131.12
2017-11-29T23:54:02.822Z,126.57
2017-11-29T23:56:30.331Z,123.68
2017-11-29T23:58:57.825Z,152.65
